createdAt,value
2023-05-09T00:00:46.866Z,100912.34
2023-05-09T00:03:14.759Z,100913.00
2023-05-09T00:05:42.195Z,100908.31
2023-05-09T00:08:09.735Z,100907.31
2023-05-09T00:10:37.164Z,100900.34
2023-05-09T00:13:04.319Z,100899.34
2023-05-09T00:15:32.324Z,100890.78
2023-05-09T00:17:59.711Z,100886.28
2023-05-09T00:20:26.919Z,100876.94
2023-05-09T00:22:53.996Z,100878.59
2023-05-09T00:25:21.136Z,100876.72
2023-05-09T00:27:48.215Z,100876.72
2023-05-09T00:30:15.332Z,100878.59
2023-05-09T00:32:42.531Z,100867.97
2023-05-09T00:35:10.392Z,100874.88
2023-05-09T00:37:39.816Z,100873.06
2023-05-09T00:40:07.957Z,100866.94
2023-05-09T00:42:35.969Z,100863.28
2023-05-09T00:45:03.485Z,100859.59
2023-05-09T00:47:31.813Z,100866.09
2023-05-09T00:49:59.797Z,100856.50
2023-05-09T00:52:27.126Z,100852.38
2023-05-09T00:54:55.992Z,100847.91
2023-05-09T00:57:23.671Z,100848.56
2023-05-09T00:59:51.174Z,100839.56
2023-05-09T01:02:19.285Z,100839.75
2023-05-09T01:04:47.014Z,100837.72
2023-05-09T01:07:16.546Z,100839.38
2023-05-09T01:10:03.151Z,100836.72
2023-05-09T01:12:41.707Z,100824.91
2023-05-09T01:15:23.968Z,100826.09
2023-05-09T01:18:04.002Z,100825.09
2023-05-09T01:20:36.656Z,100819.78
2023-05-09T01:23:22.183Z,100812.22
2023-05-09T01:26:03.411Z,100815.03
2023-05-09T01:28:50.056Z,100815.66
2023-05-09T01:31:17.795Z,100810.75
2023-05-09T01:33:47.175Z,100810.91
2023-05-09T01:36:20.687Z,100816.06
2023-05-09T01:38:55.325Z,100813.00
2023-05-09T01:41:24.998Z,100799.72
2023-05-09T01:43:54.364Z,100807.25
2023-05-09T01:46:22.903Z,100806.81
2023-05-09T01:48:51.515Z,100806.66
2023-05-09T01:51:20.489Z,100805.63
2023-05-09T01:53:49.243Z,100807.84
2023-05-09T01:56:17.897Z,100797.59
2023-05-09T01:58:48.776Z,100792.66
2023-05-09T02:01:16.929Z,100792.03
2023-05-09T02:03:47.530Z,100787.56
2023-05-09T02:06:17.817Z,100786.09
2023-05-09T02:08:45.074Z,100783.44
2023-05-09T02:11:12.079Z,100781.59
2023-05-09T02:13:40.411Z,100786.09
2023-05-09T02:16:08.180Z,100778.13
2023-05-09T02:18:35.806Z,100783.59
2023-05-09T02:21:03.533Z,100778.13
2023-05-09T02:23:32.273Z,100785.09
2023-05-09T02:25:59.495Z,100784.50
2023-05-09T02:28:27.773Z,100781.03
2023-05-09T02:30:59.005Z,100779.59
2023-05-09T02:33:32.792Z,100777.72
2023-05-09T02:36:02.889Z,100776.13
2023-05-09T02:38:29.998Z,100783.88
2023-05-09T02:40:57.145Z,100779.94
2023-05-09T02:43:24.289Z,100783.81
2023-05-09T02:45:51.374Z,100783.81
2023-05-09T02:48:18.512Z,100775.22
2023-05-09T02:50:46.367Z,100776.03
2023-05-09T02:53:13.397Z,100782.34
2023-05-09T02:55:40.444Z,100773.56
2023-05-09T02:58:14.723Z,100775.41
2023-05-09T03:00:43.023Z,100771.91
2023-05-09T03:03:10.357Z,100771.75
2023-05-09T03:05:39.708Z,100777.88
2023-05-09T03:08:06.703Z,100784.00
2023-05-09T03:10:33.895Z,100780.69
2023-05-09T03:13:01.406Z,100778.25
2023-05-09T03:15:32.160Z,100785.38
2023-05-09T03:17:59.216Z,100781.09
2023-05-09T03:20:27.244Z,100790.06
2023-05-09T03:22:54.321Z,100798.19
2023-05-09T03:25:21.578Z,100798.19
2023-05-09T03:27:48.785Z,100799.22
2023-05-09T03:30:16.140Z,100797.41
2023-05-09T03:32:43.267Z,100791.44
2023-05-09T03:35:10.294Z,100787.97
2023-05-09T03:37:40.279Z,100782.84
2023-05-09T03:40:08.442Z,100795.28
2023-05-09T03:42:35.502Z,100795.28
2023-05-09T03:45:02.703Z,100780.41
2023-05-09T03:47:31.611Z,100782.56
2023-05-09T03:49:58.609Z,100781.31
2023-05-09T03:52:26.036Z,100774.34
2023-05-09T03:54:53.260Z,100780.50
2023-05-09T03:57:20.298Z,100777.00
2023-05-09T03:59:47.510Z,100770.69
2023-05-09T04:02:14.465Z,100769.06
2023-05-09T04:04:41.391Z,100768.63
2023-05-09T04:07:08.418Z,100765.13
2023-05-09T04:09:39.643Z,100762.66
2023-05-09T04:12:07.129Z,100762.03
2023-05-09T04:14:34.004Z,100755.09
2023-05-09T04:17:01.234Z,100759.56
2023-05-09T04:19:31.415Z,100756.09
2023-05-09T04:21:58.664Z,100758.13
2023-05-09T04:24:25.591Z,100755.66
2023-05-09T04:26:52.516Z,100750.50
2023-05-09T04:29:19.403Z,100747.69
2023-05-09T04:31:46.539Z,100752.31
2023-05-09T04:34:16.887Z,100753.16
2023-05-09T04:36:43.759Z,100764.63
2023-05-09T04:39:13.192Z,100763.44
2023-05-09T04:41:40.408Z,100752.63
2023-05-09T04:44:08.292Z,100752.63
2023-05-09T04:46:35.204Z,100755.09
2023-05-09T04:49:02.135Z,100751.25
2023-05-09T04:51:31.262Z,100745.94
2023-05-09T04:53:58.429Z,100744.09
2023-05-09T04:56:25.574Z,100746.97
2023-05-09T04:58:53.163Z,100745.13
2023-05-09T05:01:20.184Z,100741.66
2023-05-09T05:03:47.074Z,100745.31
2023-05-09T05:06:16.378Z,100748.97
2023-05-09T05:08:43.401Z,100743.47
2023-05-09T05:11:10.353Z,100740.66
2023-05-09T05:13:39.275Z,100740.44
2023-05-09T05:16:06.248Z,100732.69
2023-05-09T05:18:33.204Z,100734.31
2023-05-09T05:21:00.186Z,100726.16
2023-05-09T05:23:31.427Z,100731.31
2023-05-09T05:25:58.344Z,100727.00
2023-05-09T05:28:25.228Z,100720.03
2023-05-09T05:30:52.377Z,100728.00
2023-05-09T05:33:19.367Z,100726.16
2023-05-09T05:35:46.297Z,100727.81
2023-05-09T05:38:13.881Z,100727.44
2023-05-09T05:40:40.808Z,100729.09
2023-05-09T05:43:07.723Z,100722.13
2023-05-09T05:45:39.388Z,100717.81
2023-05-09T05:48:06.436Z,100717.03
2023-05-09T05:50:33.412Z,100718.03
2023-05-09T05:53:00.418Z,100713.56
2023-05-09T05:55:31.841Z,100712.53
2023-05-09T05:57:58.875Z,100706.84
2023-05-09T06:00:26.315Z,100710.78
2023-05-09T06:02:53.307Z,100706.72
2023-05-09T06:05:20.463Z,100702.25
2023-05-09T06:07:47.708Z,100706.72
2023-05-09T06:10:16.332Z,100714.50
2023-05-09T06:12:43.270Z,100728.41
2023-05-09T06:15:10.813Z,100719.81
2023-05-09T06:17:40.148Z,100724.94
2023-05-09T06:20:07.926Z,100726.56
2023-05-09T06:22:35.024Z,100730.03
2023-05-09T06:25:02.000Z,100729.66
2023-05-09T06:27:31.193Z,100728.44
2023-05-09T06:29:58.163Z,100722.97
2023-05-09T06:32:26.028Z,100723.59
2023-05-09T06:34:53.563Z,100725.63
2023-05-09T06:37:20.541Z,100727.28
2023-05-09T06:39:47.559Z,100725.03
2023-05-09T06:42:14.648Z,100725.03
2023-05-09T06:44:41.685Z,100726.69
2023-05-09T06:47:08.722Z,100726.50
2023-05-09T06:49:40.038Z,100719.34
2023-05-09T06:52:07.094Z,100723.66
2023-05-09T06:54:34.112Z,100722.25
2023-05-09T06:57:01.462Z,100719.66
2023-05-09T06:59:31.560Z,100717.91
2023-05-09T07:01:58.708Z,100716.50
2023-05-09T07:04:25.883Z,100713.06
2023-05-09T07:06:52.851Z,100705.53
2023-05-09T07:09:20.965Z,100708.84
2023-05-09T07:11:48.040Z,100706.19
2023-05-09T07:14:15.112Z,100703.13
2023-05-09T07:16:42.223Z,100697.63
2023-05-09T07:19:09.287Z,100698.88
2023-05-09T07:21:39.547Z,100694.81
2023-05-09T07:24:07.436Z,100696.88
2023-05-09T07:26:36.009Z,100699.78
2023-05-09T07:29:03.113Z,100706.56
2023-05-09T07:31:32.788Z,100702.88
2023-05-09T07:34:01.688Z,100706.00
2023-05-09T07:36:28.992Z,100716.03
2023-05-09T07:38:56.320Z,100710.53
2023-05-09T07:41:23.524Z,100705.00
2023-05-09T07:43:50.709Z,100709.50
2023-05-09T07:46:17.905Z,100707.66
2023-05-09T07:48:45.198Z,100705.47
2023-05-09T07:51:12.430Z,100717.69
2023-05-09T07:53:40.577Z,100708.50
2023-05-09T07:56:08.254Z,100710.13
2023-05-09T07:58:35.488Z,100703.63
2023-05-09T08:01:02.548Z,100697.28
2023-05-09T08:03:32.024Z,100709.16
2023-05-09T08:05:59.448Z,100705.09
2023-05-09T08:08:27.524Z,100703.69
2023-05-09T08:10:54.594Z,100700.84
2023-05-09T08:13:22.718Z,100702.66
2023-05-09T08:15:50.232Z,100701.03
2023-05-09T08:18:17.349Z,100703.88
2023-05-09T08:20:44.649Z,100698.78
2023-05-09T08:23:12.083Z,100701.44
2023-05-09T08:25:40.294Z,100705.53
2023-05-09T08:28:07.386Z,100712.31
2023-05-09T08:30:34.496Z,100718.09
2023-05-09T08:33:01.617Z,100714.81
2023-05-09T08:35:31.354Z,100713.63
2023-05-09T08:37:58.862Z,100704.03
2023-05-09T08:40:26.028Z,100710.00
2023-05-09T08:42:53.768Z,100701.63
2023-05-09T08:45:29.978Z,100712.72
2023-05-09T08:47:57.732Z,100705.16
2023-05-09T08:50:25.959Z,100709.94
2023-05-09T08:52:53.975Z,100706.25
2023-05-09T08:55:21.788Z,100714.06
2023-05-09T08:57:50.099Z,100713.84
2023-05-09T09:00:21.188Z,100709.72
2023-05-09T09:02:49.585Z,100711.56
2023-05-09T09:05:39.453Z,100723.44
2023-05-09T09:08:06.024Z,100720.00
2023-05-09T09:10:34.174Z,100711.00
2023-05-09T09:13:05.252Z,100710.78
2023-05-09T09:15:36.824Z,100713.22
2023-05-09T09:18:09.549Z,100711.41
2023-05-09T09:20:41.012Z,100707.31
2023-05-09T09:23:11.422Z,100705.66
2023-05-09T09:25:40.267Z,100699.53
2023-05-09T09:28:07.400Z,100705.47
2023-05-09T09:30:34.620Z,100703.66
2023-05-09T09:33:01.924Z,100698.09
2023-05-09T09:35:38.533Z,100698.31
2023-05-09T09:38:06.856Z,100687.84
2023-05-09T09:40:33.834Z,100693.59
2023-05-09T09:43:00.872Z,100687.88
2023-05-09T09:45:33.081Z,100683.53
2023-05-09T09:48:07.691Z,100679.66
2023-05-09T09:50:34.922Z,100678.00
2023-05-09T09:53:02.031Z,100670.81
2023-05-09T09:55:32.051Z,100673.28
2023-05-09T09:57:59.270Z,100672.03
2023-05-09T10:00:28.796Z,100667.09
2023-05-09T10:02:58.058Z,100663.22
2023-05-09T10:05:32.187Z,100663.78
2023-05-09T10:08:01.411Z,100662.97
2023-05-09T10:10:30.646Z,100667.28
2023-05-09T10:13:00.958Z,100672.97
2023-05-09T10:15:41.355Z,100670.06
2023-05-09T10:18:15.367Z,100666.00
2023-05-09T10:20:44.632Z,100664.53
2023-05-09T10:23:13.928Z,100663.50
2023-05-09T10:25:48.356Z,100656.53
2023-05-09T10:28:19.371Z,100652.84
2023-05-09T10:30:49.749Z,100647.72
2023-05-09T10:33:21.891Z,100647.31
2023-05-09T10:35:50.852Z,100639.44
2023-05-09T10:38:19.285Z,100632.84
2023-05-09T10:40:48.610Z,100633.78
2023-05-09T10:43:16.398Z,100628.03
2023-05-09T10:45:44.922Z,100632.50
2023-05-09T10:48:12.313Z,100632.94
2023-05-09T10:50:40.754Z,100634.59
2023-05-09T10:53:09.215Z,100633.03
2023-05-09T10:55:38.446Z,100625.03
2023-05-09T10:58:24.605Z,100624.50
2023-05-09T11:00:54.663Z,100630.44
2023-05-09T11:03:23.988Z,100621.84
2023-05-09T11:05:54.188Z,100625.34
2023-05-09T11:08:30.929Z,100617.09
2023-05-09T11:11:01.115Z,100617.50
2023-05-09T11:13:40.146Z,100614.84
2023-05-09T11:16:12.091Z,100616.66
2023-05-09T11:18:52.365Z,100622.59
2023-05-09T11:21:20.847Z,100620.72
2023-05-09T11:23:48.892Z,100610.38
2023-05-09T11:26:17.022Z,100623.25
2023-05-09T11:28:53.045Z,100615.16
2023-05-09T11:31:20.713Z,100612.09
2023-05-09T11:33:55.509Z,100603.63
2023-05-09T11:36:30.651Z,100608.78
2023-05-09T11:39:05.901Z,100605.13
2023-05-09T11:41:46.282Z,100609.06
2023-05-09T11:44:18.651Z,100602.72
2023-05-09T11:46:47.694Z,100600.66
2023-05-09T11:49:15.656Z,100601.06
2023-05-09T11:51:43.137Z,100593.06
2023-05-09T11:54:11.731Z,100596.31
2023-05-09T11:56:40.929Z,100598.41
2023-05-09T11:59:08.851Z,100592.53
2023-05-09T12:01:39.608Z,100594.78
2023-05-09T12:04:08.844Z,100595.41
2023-05-09T12:06:37.525Z,100589.63
2023-05-09T12:09:04.846Z,100589.78
2023-05-09T12:11:32.762Z,100593.47
2023-05-09T12:13:59.790Z,100592.44
2023-05-09T12:16:27.042Z,100585.63
2023-05-09T12:18:54.165Z,100586.41
2023-05-09T12:21:22.190Z,100591.25
2023-05-09T12:23:51.716Z,100585.22
2023-05-09T12:26:19.479Z,100582.25
2023-05-09T12:28:48.081Z,100588.38
2023-05-09T12:31:18.091Z,100576.66
2023-05-09T12:33:45.474Z,100580.50
2023-05-09T12:36:14.123Z,100573.88
2023-05-09T12:38:41.241Z,100566.28
2023-05-09T12:41:30.828Z,100566.41
2023-05-09T12:43:59.748Z,100556.84
2023-05-09T12:46:27.115Z,100560.72
2023-05-09T12:48:54.667Z,100552.03
2023-05-09T12:51:22.548Z,100559.75
2023-05-09T12:53:50.331Z,100555.38
2023-05-09T12:56:21.162Z,100543.94
2023-05-09T12:58:51.557Z,100539.56
2023-05-09T13:01:20.219Z,100540.25
2023-05-09T13:04:03.294Z,100537.59
2023-05-09T13:06:31.178Z,100541.69
2023-05-09T13:09:00.762Z,100532.03
2023-05-09T13:11:31.764Z,100529.81
2023-05-09T13:13:58.982Z,100533.31
2023-05-09T13:16:26.164Z,100534.47
2023-05-09T13:18:53.280Z,100534.97
2023-05-09T13:21:20.584Z,100525.56
2023-05-09T13:23:49.754Z,100529.81
2023-05-09T13:26:17.022Z,100522.38
2023-05-09T13:28:44.033Z,100533.44
2023-05-09T13:31:11.322Z,100523.88
2023-05-09T13:33:40.682Z,100528.91
2023-05-09T13:36:07.845Z,100525.28
2023-05-09T13:38:39.032Z,100524.09
2023-05-09T13:41:07.334Z,100514.22
2023-05-09T13:43:34.884Z,100513.00
2023-05-09T13:46:01.949Z,100514.59
2023-05-09T13:48:29.393Z,100501.34
2023-05-09T13:50:58.075Z,100505.34
2023-05-09T13:53:25.199Z,100501.63
2023-05-09T13:55:52.420Z,100493.69
2023-05-09T13:58:19.683Z,100499.09
2023-05-09T14:00:46.762Z,100496.06
2023-05-09T14:03:13.743Z,100494.25
2023-05-09T14:05:40.912Z,100493.09
2023-05-09T14:08:08.324Z,100489.59
2023-05-09T14:10:35.444Z,100488.16
2023-05-09T14:13:02.673Z,100487.59
2023-05-09T14:15:31.749Z,100483.88
2023-05-09T14:17:59.010Z,100485.75
2023-05-09T14:20:26.230Z,100485.75
2023-05-09T14:22:55.916Z,100474.22
2023-05-09T14:25:23.175Z,100480.25
2023-05-09T14:27:50.184Z,100474.44
2023-05-09T14:30:17.441Z,100473.63
2023-05-09T14:32:44.630Z,100474.81
2023-05-09T14:35:15.268Z,100474.38
2023-05-09T14:37:42.463Z,100473.91
2023-05-09T14:40:10.283Z,100482.69
2023-05-09T14:42:37.431Z,100478.66
2023-05-09T14:45:05.789Z,100469.88
2023-05-09T14:47:34.080Z,100465.25
2023-05-09T14:50:01.733Z,100457.75
2023-05-09T14:52:29.308Z,100458.81
2023-05-09T14:54:56.416Z,100451.03
2023-05-09T14:57:23.763Z,100457.34
2023-05-09T14:59:50.798Z,100450.25
2023-05-09T15:02:17.958Z,100447.34
2023-05-09T15:04:45.468Z,100441.63
2023-05-09T15:07:12.985Z,100444.78
2023-05-09T15:09:40.509Z,100444.78
2023-05-09T15:12:07.765Z,100448.63
2023-05-09T15:14:34.885Z,100447.22
2023-05-09T15:17:04.662Z,100440.47
2023-05-09T15:19:32.878Z,100442.66
2023-05-09T15:22:00.842Z,100436.94
2023-05-09T15:24:28.080Z,100455.09
2023-05-09T15:26:55.143Z,100450.53
2023-05-09T15:29:22.533Z,100452.66
2023-05-09T15:31:49.677Z,100455.88
2023-05-09T15:34:18.510Z,100463.00
2023-05-09T15:36:45.690Z,100460.41
2023-05-09T15:39:13.008Z,100463.53
2023-05-09T15:41:40.877Z,100453.75
2023-05-09T15:44:08.638Z,100450.28
2023-05-09T15:46:35.933Z,100449.44
2023-05-09T15:49:03.786Z,100456.31
2023-05-09T15:51:33.950Z,100457.41
2023-05-09T15:54:01.187Z,100469.34
2023-05-09T15:56:28.216Z,100459.97
2023-05-09T15:58:55.507Z,100461.91
2023-05-09T16:01:22.881Z,100456.63
2023-05-09T16:03:50.317Z,100457.56
2023-05-09T16:06:18.011Z,100453.09
2023-05-09T16:08:46.630Z,100452.56
2023-05-09T16:11:15.068Z,100445.69
2023-05-09T16:13:42.190Z,100458.06
2023-05-09T16:16:09.451Z,100451.91
2023-05-09T16:18:36.826Z,100453.75
2023-05-09T16:21:04.285Z,100448.00
2023-05-09T16:23:32.827Z,100450.06
2023-05-09T16:26:00.051Z,100442.56
2023-05-09T16:28:28.568Z,100447.13
2023-05-09T16:30:56.105Z,100439.59
2023-05-09T16:33:23.615Z,100439.44
2023-05-09T16:35:50.865Z,100432.50
2023-05-09T16:38:17.983Z,100431.28
2023-05-09T16:40:45.487Z,100426.78
2023-05-09T16:43:12.586Z,100431.09
2023-05-09T16:45:40.554Z,100443.81
2023-05-09T16:48:07.930Z,100439.34
2023-05-09T16:50:35.328Z,100435.28
2023-05-09T16:53:04.308Z,100430.41
2023-05-09T16:55:33.647Z,100434.69
2023-05-09T16:58:01.338Z,100432.25
2023-05-09T17:00:28.603Z,100428.16
2023-05-09T17:02:55.936Z,100421.03
2023-05-09T17:05:23.273Z,100424.97
2023-05-09T17:07:50.656Z,100421.94
2023-05-09T17:10:18.364Z,100434.66
2023-05-09T17:12:45.705Z,100432.63
2023-05-09T17:15:14.352Z,100437.19
2023-05-09T17:17:41.655Z,100462.06
2023-05-09T17:20:12.097Z,100482.44
2023-05-09T17:22:39.795Z,100488.84
2023-05-09T17:25:08.083Z,100500.34
2023-05-09T17:27:35.259Z,100502.84
2023-05-09T17:30:03.194Z,100515.78
2023-05-09T17:32:30.516Z,100508.44
2023-05-09T17:34:58.261Z,100506.16
2023-05-09T17:37:26.325Z,100524.88
2023-05-09T17:39:53.830Z,100519.00
2023-05-09T17:42:21.269Z,100520.88
2023-05-09T17:44:48.609Z,100531.38
2023-05-09T17:47:15.789Z,100532.22
2023-05-09T17:49:43.714Z,100525.69
2023-05-09T17:52:11.024Z,100532.88
2023-05-09T17:54:38.202Z,100540.00
2023-05-09T17:57:05.466Z,100547.78
2023-05-09T17:59:37.736Z,100537.94
2023-05-09T18:02:04.869Z,100534.09
2023-05-09T18:04:34.614Z,100536.13
2023-05-09T18:07:02.060Z,100529.75
2023-05-09T18:09:32.206Z,100533.03
2023-05-09T18:11:59.484Z,100525.66
2023-05-09T18:14:26.670Z,100534.03
2023-05-09T18:16:53.981Z,100535.28
2023-05-09T18:19:24.059Z,100537.31
2023-05-09T18:21:51.361Z,100539.75
2023-05-09T18:24:20.907Z,100544.25
2023-05-09T18:26:49.508Z,100549.56
2023-05-09T18:29:17.652Z,100548.75
2023-05-09T18:31:44.846Z,100556.13
2023-05-09T18:34:12.077Z,100553.03
2023-05-09T18:36:39.090Z,100559.16
2023-05-09T18:39:06.086Z,100551.75
2023-05-09T18:41:41.899Z,100567.66
2023-05-09T18:44:09.007Z,100567.56
2023-05-09T18:46:36.114Z,100570.75
2023-05-09T18:49:04.419Z,100574.66
2023-05-09T18:51:34.284Z,100583.38
2023-05-09T18:54:01.252Z,100582.53
2023-05-09T18:56:28.422Z,100576.78
2023-05-09T18:58:55.445Z,100574.09
2023-05-09T19:01:24.596Z,100571.19
2023-05-09T19:03:54.577Z,100570.34
2023-05-09T19:06:22.154Z,100572.34
2023-05-09T19:08:49.164Z,100557.19
2023-05-09T19:11:16.637Z,100564.47
2023-05-09T19:13:49.012Z,100553.19
2023-05-09T19:16:20.174Z,100556.81
2023-05-09T19:18:47.436Z,100558.00
2023-05-09T19:21:16.027Z,100567.34
2023-05-09T19:23:43.204Z,100569.19
2023-05-09T19:26:10.378Z,100568.34
2023-05-09T19:28:37.494Z,100562.06
2023-05-09T19:31:04.763Z,100566.69
2023-05-09T19:33:39.036Z,100572.66
2023-05-09T19:36:06.953Z,100574.63
2023-05-09T19:38:35.412Z,100569.00
2023-05-09T19:41:03.002Z,100565.97
2023-05-09T19:43:33.234Z,100567.16
2023-05-09T19:46:01.799Z,100564.69
2023-05-09T19:48:29.321Z,100569.81
2023-05-09T19:50:59.915Z,100566.13
2023-05-09T19:53:27.691Z,100569.81
2023-05-09T19:55:54.875Z,100567.16
2023-05-09T19:58:22.068Z,100563.47
2023-05-09T20:00:49.609Z,100569.00
2023-05-09T20:03:17.023Z,100567.78
2023-05-09T20:05:45.632Z,100568.78
2023-05-09T20:08:12.895Z,100573.47
2023-05-09T20:10:40.511Z,100570.81
2023-05-09T20:13:07.721Z,100576.97
2023-05-09T20:15:35.777Z,100572.66
2023-05-09T20:18:04.741Z,100567.34
2023-05-09T20:20:33.188Z,100574.63
2023-05-09T20:23:01.913Z,100573.00
2023-05-09T20:25:33.900Z,100566.44
2023-05-09T20:28:01.819Z,100565.59
2023-05-09T20:30:28.992Z,100554.19
2023-05-09T20:32:57.175Z,100560.31
2023-05-09T20:35:25.037Z,100559.94
2023-05-09T20:37:52.026Z,100548.69
2023-05-09T20:40:20.723Z,100549.69
2023-05-09T20:42:47.676Z,100551.28
2023-05-09T20:45:14.664Z,100548.38
2023-05-09T20:47:41.643Z,100550.78
2023-05-09T20:50:09.292Z,100552.66
2023-05-09T20:52:36.366Z,100560.38
2023-05-09T20:55:03.626Z,100550.78
2023-05-09T20:57:35.601Z,100556.28
2023-05-09T21:00:02.566Z,100545.22
2023-05-09T21:02:29.903Z,100538.09
2023-05-09T21:04:57.115Z,100547.88
2023-05-09T21:07:24.019Z,100547.88
2023-05-09T21:09:51.115Z,100546.88
2023-05-09T21:12:21.312Z,100544.47
2023-05-09T21:14:49.327Z,100552.66
2023-05-09T21:17:16.551Z,100556.09
2023-05-09T21:19:43.609Z,100554.72
2023-05-09T21:22:10.594Z,100554.31
2023-05-09T21:24:37.515Z,100562.72
2023-05-09T21:27:05.226Z,100566.19
2023-05-09T21:29:37.620Z,100568.84
2023-05-09T21:32:04.732Z,100575.78
2023-05-09T21:34:31.742Z,100569.06
2023-05-09T21:36:58.682Z,100574.72
2023-05-09T21:39:26.076Z,100577.53
2023-05-09T21:41:53.113Z,100575.28
2023-05-09T21:44:20.067Z,100569.97
2023-05-09T21:46:47.078Z,100577.94
2023-05-09T21:49:17.018Z,100578.59
2023-05-09T21:51:44.001Z,100590.81
2023-05-09T21:54:11.251Z,100588.78
2023-05-09T21:56:38.292Z,100596.56
2023-05-09T21:59:05.323Z,100590.25
2023-05-09T22:01:37.269Z,100593.91
2023-05-09T22:04:05.702Z,100589.44
2023-05-09T22:06:32.914Z,100593.09
2023-05-09T22:08:59.804Z,100588.63
2023-05-09T22:11:26.851Z,100591.25
2023-05-09T22:13:53.847Z,100599.56
2023-05-09T22:16:22.683Z,100582.06
2023-05-09T22:18:49.742Z,100594.03
2023-05-09T22:21:16.641Z,100595.41
2023-05-09T22:23:44.106Z,100595.81
2023-05-09T22:26:11.347Z,100585.78
2023-05-09T22:28:38.531Z,100590.25
2023-05-09T22:31:07.025Z,100592.44
2023-05-09T22:33:39.228Z,100591.44
2023-05-09T22:36:07.265Z,100589.78
2023-05-09T22:38:34.257Z,100596.13
2023-05-09T22:41:01.215Z,100602.03
2023-05-09T22:43:33.866Z,100596.94
2023-05-09T22:46:06.093Z,100593.66
2023-05-09T22:48:33.180Z,100595.03
2023-05-09T22:51:00.145Z,100599.34
2023-05-09T22:53:27.059Z,100583.63
2023-05-09T22:55:55.022Z,100598.69
2023-05-09T22:58:22.819Z,100598.88
2023-05-09T23:00:49.953Z,100598.25
2023-05-09T23:03:17.736Z,100601.09
2023-05-09T23:05:44.809Z,100601.91
2023-05-09T23:08:11.828Z,100606.38
2023-05-09T23:10:38.706Z,100604.72
2023-05-09T23:13:05.756Z,100606.38
2023-05-09T23:15:33.021Z,100600.56
2023-05-09T23:18:00.350Z,100601.94
2023-05-09T23:20:29.626Z,100605.41
2023-05-09T23:22:56.696Z,100606.25
2023-05-09T23:25:23.920Z,100604.59
2023-05-09T23:27:50.907Z,100608.91
2023-05-09T23:30:18.309Z,100606.69
2023-05-09T23:32:45.410Z,100603.03
2023-05-09T23:35:12.407Z,100602.00
2023-05-09T23:37:40.002Z,100589.31
2023-05-09T23:40:08.030Z,100591.97
2023-05-09T23:42:35.252Z,100585.22
2023-05-09T23:45:02.410Z,100588.50
2023-05-09T23:47:31.609Z,100589.53
2023-05-09T23:49:58.830Z,100592.16
2023-05-09T23:52:26.363Z,100588.69
2023-05-09T23:54:53.598Z,100592.75
2023-05-09T23:57:20.678Z,100585.97
2023-05-09T23:59:47.870Z,100581.50
